Forside
METAR-TAF:

METAR-TAF

Lufthavne :

Jackson County Airport (Reynolds Field)

Jackson, Michigan, USA

Breddekreds: 42-15-35N, længdekreds: 084-27-34W, højde: 305 m

Aktuelle vejr

Denne rapport blev lavet for 24 minutter siden, kl. 00:56 UTC
Vind 4 kt fra syd
Temperatur 26°C
Fugtighed 61%
Tryk 1014 hPa
Sigt: 16.1 km
skyfri

METAR: KJXN 250056Z 17004KT 10SM CLR 26/18 A2993 RMK AO2 SLP129 T02610178

Tid: 21:20 (01:20 UTC)

Vejrudsigter

Denne rapport blev lavet for 2 timer og 0 minutter siden, kl. 23:20 UTC
Foreløbig gælder fra 25 på 00 UTC til 25 på 24 UTC
Vind 7 kt fra sydvest
Sigt: 10 km
Nogle få skyer i en højde af 6000 ft
Fra 25 på 0600 UTC
Vind 4 kt fra varierende retninger
Sigt: 6.4 km
skyfri
dis
Fra 25 på 1200 UTC
Vind 3 kt fra varierende retninger
Sigt: 10 km
Nogle få skyer i en højde af 20000 ft
Fra 25 på 1400 UTC
Vind 5 kt fra syd
Sigt: 10 km
Spredte skyer i en højde af 20000 ft

TAF: KJXN 242320Z 2500/2524 22007KT P6SM FEW060 FM250600 VRB04KT 4SM BR SKC FM251200 VRB03KT P6SM FEW200 FM251400 19005KT P6SM SCT200

Vejrobservationer og prognoser fra mere end 4000 lufthavne (METAR og TAF).

De gule og røde prikker repræsenterer de meteorologiske stationer.

Flyt musen over at se navnet på stationen.

Så klik over at se vejr observationer og prognoser.

At skifte det kort: Klik på de grønne knapper med et sort kors for at zoome ind; på den grønne knap med en bindestreg for at zoome ud; eller på de grønne pile for tilstødende kort.


METAR-TAF: